Impacts TAF Board
For situational awareness. Not to be used for flight planning purposes.
IDs:

KMSP - Minneapolis-St Paul, MN, US

Issued at 0820 UTC 25 May 2020
Updated at 0924 UTC 25 May 2020
Potential Impact None Slight Moderate High
Time0853Z 25/10Z 25/11Z 25/12Z 25/13Z 25/14Z 25/15Z 25/16Z 25/17Z 25/18Z 25/19Z 25/20Z 25/21Z 25/22Z>>
Type OBS PRVL PRVL PRVL PRVL PRVL PRVL PRVL PRVL PRVL PRVL PRVL PRVL PRVL
VIS 10 >6 6 6 6 6 6 6 6 >6 >6 >6 >6 >6
CIG 190 120 40 40 40 40 40 40 40 50 50 50 50 50
Cover BKN OVC BKN BKN BKN BKN BKN BKN BKN BKN BKN BKN BKN BKN
FltCat VFR VFR VFR VFR VFR VFR VFR VFR VFR VFR VFR VFR VFR VFR
WX -- -- -SHRA BR -SHRA BR -SHRA BR -SHRA BR -SHRA BR -SHRA BR -SHRA BR -- -- -- -- --
WDir 210 190 VRB VRB VRB VRB VRB VRB VRB VRB VRB VRB VRB VRB
WSpd 3 2 0 0 0 0 0 0 0 4 4 4 4 4
WGst -- -- -- -- -- -- -- -- -- -- -- -- -- --
Raw TAF
KMSP 250820Z 2508/2612 19002KT P6SM SCT040 OVC120
  FM251100 00000KT 6SM -SHRA BR BKN040
  FM251800 VRB04KT P6SM BKN050
  FM260900 12005KT P6SM BKN035


Raw METAR
KMSP 250853Z 21003KT 10SM BKN190 19/18 A2983 RMK AO2 SLP097 T01940178 53006
KMSP 250753Z 20003KT 10SM BKN200 20/18 A2982 RMK AO2 SLP094 T02000178
KMSP 250653Z 18003KT 10SM SCT050 BKN210 19/18 A2982 RMK AO2 SLP093 T01940183

METAR Board
Radar Display
Forecast Discussion
For situational awareness. Not to be used for flight planning purposes.